createdAt,value
2023-01-06T00:01:54.002Z,11.78
2023-01-06T00:03:59.511Z,11.82
2023-01-06T00:06:03.461Z,11.74
2023-01-06T00:08:06.889Z,11.70
2023-01-06T00:10:10.685Z,11.76
2023-01-06T00:12:13.671Z,11.68
2023-01-06T00:14:16.770Z,11.69
2023-01-06T00:16:21.259Z,11.72
2023-01-06T00:18:24.475Z,11.67
2023-01-06T00:20:29.249Z,11.74
2023-01-06T00:22:32.140Z,11.61
2023-01-06T00:24:35.011Z,11.62
2023-01-06T00:26:37.989Z,11.63
2023-01-06T00:28:41.286Z,11.63
2023-01-06T00:30:44.476Z,11.61
2023-01-06T00:32:49.412Z,11.58
2023-01-06T00:34:52.310Z,11.57
2023-01-06T00:36:56.922Z,11.59
2023-01-06T00:38:59.831Z,11.51
2023-01-06T00:41:04.956Z,11.59
2023-01-06T00:43:06.914Z,11.53
2023-01-06T00:45:10.439Z,11.55
2023-01-06T00:47:14.300Z,11.54
2023-01-06T00:49:18.087Z,11.55
2023-01-06T00:51:21.120Z,11.42
2023-01-06T00:53:26.881Z,11.42
2023-01-06T00:55:30.357Z,11.51
2023-01-06T00:57:33.344Z,11.60
2023-01-06T00:59:36.807Z,11.57
2023-01-06T01:01:40.269Z,11.55
2023-01-06T01:03:43.370Z,11.53
2023-01-06T01:05:46.243Z,11.45
2023-01-06T01:07:49.248Z,11.50
2023-01-06T01:09:53.526Z,11.50
2023-01-06T01:12:12.896Z,11.58
2023-01-06T01:14:17.365Z,11.51
2023-01-06T01:16:20.201Z,11.55
2023-01-06T01:18:23.093Z,11.51
2023-01-06T01:20:26.001Z,11.59
2023-01-06T01:22:30.720Z,11.54
2023-01-06T01:24:33.868Z,11.51
2023-01-06T01:26:38.152Z,11.63
2023-01-06T01:28:41.182Z,11.65
2023-01-06T01:30:44.041Z,11.64
2023-01-06T01:32:49.946Z,11.57
2023-01-06T01:34:52.854Z,11.67
2023-01-06T01:36:56.714Z,11.62
2023-01-06T01:39:02.643Z,11.66
2023-01-06T01:41:06.407Z,11.66
2023-01-06T01:43:12.686Z,11.72
2023-01-06T01:45:23.857Z,11.72
2023-01-06T01:47:46.452Z,11.63
2023-01-06T01:49:50.975Z,11.54
2023-01-06T01:51:55.906Z,11.65
2023-01-06T01:54:03.023Z,11.58
2023-01-06T01:56:09.815Z,11.64
2023-01-06T01:58:17.386Z,11.66
2023-01-06T02:00:20.637Z,11.64
2023-01-06T02:02:24.810Z,11.48
2023-01-06T02:04:29.353Z,11.59
2023-01-06T02:06:34.290Z,11.64
2023-01-06T02:08:39.520Z,11.64
2023-01-06T02:10:42.409Z,11.58
2023-01-06T02:12:49.122Z,11.61
2023-01-06T02:14:53.933Z,11.63
2023-01-06T02:17:10.196Z,11.62
2023-01-06T02:19:41.200Z,11.56
2023-01-06T02:21:59.663Z,11.55
2023-01-06T02:24:50.404Z,11.65
2023-01-06T02:27:21.469Z,11.67
2023-01-06T02:32:22.276Z,11.63
2023-01-06T02:34:39.957Z,11.60
2023-01-06T02:36:46.431Z,11.49
2023-01-06T02:39:01.003Z,11.59
2023-01-06T02:41:11.962Z,11.50
2023-01-06T02:43:18.846Z,11.54
2023-01-06T02:45:26.566Z,11.55
2023-01-06T02:47:35.806Z,11.51
2023-01-06T02:49:46.489Z,11.46
2023-01-06T02:51:52.506Z,11.59
2023-01-06T02:54:05.929Z,11.46
2023-01-06T02:56:09.217Z,11.49
2023-01-06T02:58:14.730Z,11.53
2023-01-06T03:00:23.120Z,11.56
2023-01-06T03:02:27.171Z,11.65
2023-01-06T03:04:34.330Z,11.72
2023-01-06T03:06:44.631Z,11.60
2023-01-06T03:08:51.305Z,11.62
2023-01-06T03:10:55.815Z,11.61
2023-01-06T03:13:04.131Z,11.55
2023-01-06T03:15:09.497Z,11.61
2023-01-06T03:17:13.255Z,11.63
2023-01-06T03:19:17.091Z,11.60
2023-01-06T03:21:25.433Z,11.71
2023-01-06T03:23:28.675Z,11.66
2023-01-06T03:25:31.745Z,11.50
2023-01-06T03:27:35.409Z,11.64
2023-01-06T03:29:39.579Z,11.62
2023-01-06T03:31:50.686Z,11.63
2023-01-06T03:33:58.459Z,11.73
2023-01-06T03:36:09.524Z,11.64
2023-01-06T03:38:22.313Z,11.73
2023-01-06T03:40:31.727Z,11.72
2023-01-06T03:42:57.715Z,11.72
2023-01-06T03:45:06.670Z,11.71
2023-01-06T03:47:13.888Z,11.66
2023-01-06T03:49:20.200Z,11.70
2023-01-06T03:51:32.369Z,11.68
2023-01-06T03:53:41.434Z,11.65
2023-01-06T03:55:47.935Z,11.65
2023-01-06T03:57:53.705Z,11.66
2023-01-06T04:00:02.083Z,11.52
2023-01-06T04:02:06.657Z,11.64
2023-01-06T04:04:10.066Z,11.56
2023-01-06T04:06:13.074Z,11.63
2023-01-06T04:08:16.407Z,11.65
2023-01-06T04:10:22.850Z,11.54
2023-01-06T04:12:40.337Z,11.46
2023-01-06T04:14:47.518Z,11.55
2023-01-06T04:16:50.407Z,11.64
2023-01-06T04:18:53.333Z,11.59
2023-01-06T04:20:56.309Z,11.61
2023-01-06T04:23:04.991Z,11.55
2023-01-06T04:25:12.680Z,11.52
2023-01-06T04:27:18.047Z,11.61
2023-01-06T04:29:22.507Z,11.66
2023-01-06T04:31:25.476Z,11.56
2023-01-06T04:33:30.332Z,11.58
2023-01-06T04:35:37.162Z,11.62
2023-01-06T04:37:40.707Z,11.62
2023-01-06T04:39:43.784Z,11.63
2023-01-06T04:41:46.960Z,11.57
2023-01-06T04:43:51.260Z,11.59
2023-01-06T04:45:54.450Z,11.61
2023-01-06T04:47:57.443Z,11.55
2023-01-06T04:50:02.531Z,11.65
2023-01-06T04:52:07.017Z,11.65
2023-01-06T04:54:09.991Z,11.55
2023-01-06T04:56:13.709Z,11.65
2023-01-06T04:58:16.521Z,11.56
2023-01-06T05:00:20.945Z,11.63
2023-01-06T05:02:23.822Z,11.62
2023-01-06T05:04:28.439Z,11.60
2023-01-06T05:06:33.217Z,11.60
2023-01-06T05:08:36.025Z,11.46
2023-01-06T05:10:38.941Z,11.61
2023-01-06T05:12:42.059Z,11.58
2023-01-06T05:14:45.020Z,11.64
2023-01-06T05:16:49.282Z,11.64
2023-01-06T05:18:52.855Z,11.66
2023-01-06T05:20:56.169Z,11.56
2023-01-06T05:22:59.033Z,11.65
2023-01-06T05:25:01.971Z,11.69
2023-01-06T05:27:07.414Z,11.71
2023-01-06T05:29:10.671Z,11.73
2023-01-06T05:31:13.793Z,11.72
2023-01-06T05:33:18.121Z,11.63
2023-01-06T05:35:21.038Z,11.59
2023-01-06T05:37:24.060Z,11.62
2023-01-06T05:39:26.960Z,11.66
2023-01-06T05:41:30.065Z,11.72
2023-01-06T05:43:34.933Z,11.75
2023-01-06T05:45:40.161Z,11.67
2023-01-06T05:47:43.616Z,11.69
2023-01-06T05:49:48.059Z,11.71
2023-01-06T05:51:51.013Z,11.75
2023-01-06T05:53:54.108Z,11.67
2023-01-06T05:56:01.112Z,11.73
2023-01-06T05:58:03.996Z,11.68
2023-01-06T06:00:08.460Z,11.66
2023-01-06T06:02:18.030Z,11.56
2023-01-06T06:04:21.488Z,11.62
2023-01-06T06:06:27.949Z,11.67
2023-01-06T06:08:31.021Z,11.65
2023-01-06T06:10:34.232Z,11.58
2023-01-06T06:12:38.642Z,11.60
2023-01-06T06:14:41.690Z,11.65
2023-01-06T06:16:44.976Z,11.75
2023-01-06T06:18:51.330Z,11.67
2023-01-06T06:21:01.507Z,11.72
2023-01-06T06:23:05.980Z,11.60
2023-01-06T06:25:09.444Z,11.63
2023-01-06T06:27:12.341Z,11.59
2023-01-06T06:29:15.789Z,11.61
2023-01-06T06:31:20.362Z,11.72
2023-01-06T06:33:23.746Z,11.61
2023-01-06T06:35:27.812Z,11.53
2023-01-06T06:37:30.663Z,11.62
2023-01-06T06:39:34.956Z,11.63
2023-01-06T06:41:37.888Z,11.57
2023-01-06T06:43:40.921Z,11.56
2023-01-06T06:45:45.455Z,11.66
2023-01-06T06:47:48.391Z,11.63
2023-01-06T06:49:52.419Z,11.68
2023-01-06T06:51:55.612Z,11.52
2023-01-06T06:53:58.710Z,11.55
2023-01-06T06:56:05.084Z,11.57
2023-01-06T06:58:08.003Z,11.64
2023-01-06T07:00:12.369Z,11.58
2023-01-06T07:02:15.470Z,11.61
2023-01-06T07:04:18.614Z,11.57
2023-01-06T07:06:23.126Z,11.61
2023-01-06T07:08:27.616Z,11.56
2023-01-06T07:10:30.722Z,11.53
2023-01-06T07:12:34.990Z,11.58
2023-01-06T07:14:37.921Z,11.54
2023-01-06T07:16:43.098Z,11.60
2023-01-06T07:18:46.000Z,11.60
2023-01-06T07:20:53.481Z,11.61
2023-01-06T07:22:56.868Z,11.58
2023-01-06T07:25:02.203Z,11.50
2023-01-06T07:27:05.269Z,11.52
2023-01-06T07:29:09.464Z,11.49
2023-01-06T07:31:12.486Z,11.56
2023-01-06T07:33:15.375Z,11.55
2023-01-06T07:35:18.676Z,11.48
2023-01-06T07:37:21.584Z,11.53
2023-01-06T07:39:24.756Z,11.32
2023-01-06T07:41:27.908Z,11.25
2023-01-06T07:43:34.623Z,11.35
2023-01-06T07:45:39.297Z,11.25
2023-01-06T07:47:42.259Z,11.28
2023-01-06T07:49:45.149Z,11.35
2023-01-06T07:51:47.971Z,11.22
2023-01-06T07:53:50.896Z,11.27
2023-01-06T07:55:53.900Z,11.30
2023-01-06T07:57:58.566Z,11.25
2023-01-06T08:00:01.459Z,11.45
2023-01-06T08:02:06.775Z,11.29
2023-01-06T08:04:09.766Z,11.28
2023-01-06T08:06:13.699Z,11.32
2023-01-06T08:08:16.618Z,11.34
2023-01-06T08:10:19.547Z,11.36
2023-01-06T08:12:22.525Z,11.41
2023-01-06T08:14:25.486Z,11.40
2023-01-06T08:16:28.439Z,11.48
2023-01-06T08:18:34.507Z,11.51
2023-01-06T08:20:37.595Z,11.49
2023-01-06T08:22:40.576Z,11.52
2023-01-06T08:24:43.412Z,11.54
2023-01-06T08:26:46.421Z,11.54
2023-01-06T08:28:49.419Z,11.48
2023-01-06T08:30:53.916Z,11.51
2023-01-06T08:32:58.920Z,11.58
2023-01-06T08:35:03.348Z,11.54
2023-01-06T08:37:06.326Z,11.55
2023-01-06T08:39:09.379Z,11.61
2023-01-06T08:41:12.914Z,11.70
2023-01-06T08:43:15.806Z,11.66
2023-01-06T08:45:18.973Z,11.74
2023-01-06T08:47:22.187Z,11.70
2023-01-06T08:49:27.416Z,11.80
2023-01-06T08:51:31.763Z,11.78
2023-01-06T08:53:35.256Z,11.66
2023-01-06T08:55:39.705Z,11.64
2023-01-06T08:57:43.053Z,11.71
2023-01-06T08:59:45.890Z,11.72
2023-01-06T09:01:49.945Z,11.66
2023-01-06T09:03:53.327Z,11.62
2023-01-06T09:05:57.225Z,11.64
2023-01-06T09:08:02.003Z,11.69
2023-01-06T09:10:05.505Z,11.59
2023-01-06T09:12:08.844Z,11.51
2023-01-06T09:14:13.995Z,11.65
2023-01-06T09:16:16.984Z,11.50
2023-01-06T09:18:19.902Z,11.56
2023-01-06T09:20:25.368Z,11.58
2023-01-06T09:22:28.936Z,11.62
2023-01-06T09:24:33.416Z,11.49
2023-01-06T09:26:36.268Z,11.65
2023-01-06T09:28:39.383Z,11.46
2023-01-06T09:30:42.333Z,11.49
2023-01-06T09:32:45.887Z,11.55
2023-01-06T09:34:48.825Z,11.41
2023-01-06T09:36:52.036Z,11.43
2023-01-06T09:38:55.331Z,11.46
2023-01-06T09:41:22.068Z,11.59
2023-01-06T09:43:36.015Z,11.62
2023-01-06T09:45:41.231Z,11.47
2023-01-06T09:47:48.137Z,11.40
2023-01-06T09:49:53.155Z,11.48
2023-01-06T09:51:58.752Z,11.58
2023-01-06T09:54:06.957Z,11.55
2023-01-06T09:56:15.472Z,11.62
2023-01-06T09:58:20.138Z,11.66
2023-01-06T10:00:34.411Z,11.82
2023-01-06T10:02:39.299Z,11.73
2023-01-06T10:04:42.666Z,11.78
2023-01-06T10:06:48.116Z,11.79
2023-01-06T10:08:56.989Z,11.76
2023-01-06T10:11:13.041Z,11.84
2023-01-06T10:13:31.999Z,11.85
2023-01-06T10:15:41.786Z,11.72
2023-01-06T10:17:53.411Z,11.67
2023-01-06T10:20:04.649Z,11.67
2023-01-06T10:22:10.768Z,11.57
2023-01-06T10:24:25.875Z,11.49
2023-01-06T10:26:32.006Z,11.46
2023-01-06T10:28:36.672Z,11.45
2023-01-06T10:30:44.279Z,11.44
2023-01-06T10:32:51.030Z,11.45
2023-01-06T10:34:54.017Z,11.43
2023-01-06T10:37:03.760Z,11.46
2023-01-06T10:39:10.912Z,11.41
2023-01-06T10:41:19.540Z,11.55
2023-01-06T10:43:23.904Z,11.65
2023-01-06T10:45:30.194Z,11.55
2023-01-06T10:47:34.602Z,11.75
2023-01-06T10:49:37.653Z,11.80
2023-01-06T10:51:42.403Z,11.85
2023-01-06T10:53:45.316Z,11.67
2023-01-06T10:55:49.319Z,11.71
2023-01-06T10:57:53.993Z,11.76
2023-01-06T11:00:15.198Z,11.82
2023-01-06T11:02:24.291Z,11.80
2023-01-06T11:04:29.097Z,11.67
2023-01-06T11:06:33.099Z,11.70
2023-01-06T11:08:37.110Z,11.64
2023-01-06T11:10:43.498Z,11.59
2023-01-06T11:12:47.292Z,11.73
2023-01-06T11:14:52.765Z,11.64
2023-01-06T11:16:58.560Z,11.88
2023-01-06T11:19:04.014Z,11.91
2023-01-06T11:21:12.251Z,12.27
2023-01-06T11:23:21.946Z,12.13
2023-01-06T11:25:30.267Z,12.33
2023-01-06T11:27:33.152Z,12.20
2023-01-06T11:29:37.039Z,12.40
2023-01-06T11:31:40.098Z,12.53
2023-01-06T11:33:50.723Z,12.67
2023-01-06T11:35:54.031Z,12.40
2023-01-06T11:37:59.884Z,12.32
2023-01-06T11:40:11.290Z,12.33
2023-01-06T11:42:15.852Z,12.48
2023-01-06T11:44:20.601Z,12.64
2023-01-06T11:46:25.388Z,12.61
2023-01-06T11:48:30.012Z,12.68
2023-01-06T11:50:34.306Z,12.71
2023-01-06T11:52:39.155Z,12.73
2023-01-06T11:54:42.106Z,12.80
2023-01-06T11:56:58.768Z,12.87
2023-01-06T11:59:06.314Z,12.87
2023-01-06T12:01:12.548Z,12.63
2023-01-06T12:03:20.662Z,12.78
2023-01-06T12:05:31.024Z,12.78
2023-01-06T12:07:39.992Z,12.90
2023-01-06T12:09:48.948Z,12.90
2023-01-06T12:11:53.309Z,12.73
2023-01-06T12:14:11.065Z,12.78
2023-01-06T12:16:23.837Z,13.14
2023-01-06T12:18:31.492Z,12.95
2023-01-06T12:20:36.482Z,13.14
2023-01-06T12:22:43.227Z,13.36
2023-01-06T12:24:46.774Z,13.37
2023-01-06T12:26:50.395Z,13.54
2023-01-06T12:28:55.259Z,12.90
2023-01-06T12:31:02.200Z,13.21
2023-01-06T12:33:13.652Z,13.24
2023-01-06T12:35:20.010Z,13.07
2023-01-06T12:37:28.649Z,13.23
2023-01-06T12:39:37.791Z,13.15
2023-01-06T12:41:43.281Z,13.16
2023-01-06T12:43:53.349Z,13.34
2023-01-06T12:45:59.913Z,13.33
2023-01-06T12:48:05.427Z,13.56
2023-01-06T12:50:16.055Z,13.68
2023-01-06T12:52:23.257Z,13.71
2023-01-06T12:54:29.749Z,13.44
2023-01-06T12:56:49.018Z,13.46
2023-01-06T12:59:00.686Z,13.44
2023-01-06T13:01:07.120Z,13.52
2023-01-06T13:03:42.345Z,13.82
2023-01-06T13:05:52.737Z,13.96
2023-01-06T13:08:03.167Z,14.14
2023-01-06T13:10:15.323Z,14.22
2023-01-06T13:12:33.122Z,14.42
2023-01-06T13:14:43.051Z,14.64
2023-01-06T13:16:50.788Z,14.90
2023-01-06T13:19:00.714Z,15.03
2023-01-06T13:21:06.645Z,15.03
2023-01-06T13:23:34.019Z,14.70
2023-01-06T13:25:52.461Z,14.39
2023-01-06T13:28:06.226Z,14.52
2023-01-06T13:30:43.121Z,14.12
2023-01-06T13:33:02.654Z,14.04
2023-01-06T13:35:34.077Z,14.40
2023-01-06T13:37:38.773Z,14.25
2023-01-06T13:39:43.139Z,14.18
2023-01-06T13:41:48.653Z,14.00
2023-01-06T13:43:55.707Z,13.96
2023-01-06T13:46:01.807Z,13.89
2023-01-06T13:48:08.871Z,14.09
2023-01-06T13:50:14.409Z,14.04
2023-01-06T13:52:20.296Z,13.87
2023-01-06T13:55:00.246Z,14.16
2023-01-06T13:57:26.963Z,14.15
2023-01-06T13:59:31.279Z,14.15
2023-01-06T14:01:34.394Z,14.00
2023-01-06T14:03:38.430Z,13.81
2023-01-06T14:06:05.547Z,13.66
2023-01-06T14:08:17.731Z,13.63
2023-01-06T14:10:31.983Z,13.45
2023-01-06T14:12:35.743Z,13.29
2023-01-06T14:14:42.791Z,13.37
2023-01-06T14:16:47.085Z,13.29
2023-01-06T14:18:52.407Z,13.38
2023-01-06T14:21:01.027Z,13.36
2023-01-06T14:23:06.510Z,13.25
2023-01-06T14:25:22.481Z,13.38
2023-01-06T14:28:24.198Z,13.34
2023-01-06T14:30:31.443Z,13.11
2023-01-06T14:33:06.737Z,13.24
2023-01-06T14:35:12.268Z,13.19
2023-01-06T14:37:17.199Z,13.08
2023-01-06T14:39:24.427Z,12.85
2023-01-06T14:41:30.270Z,12.85
2023-01-06T14:43:38.212Z,12.76
2023-01-06T14:45:42.734Z,12.72
2023-01-06T14:47:48.038Z,12.67
2023-01-06T14:49:56.083Z,12.85
2023-01-06T14:52:00.441Z,12.77
2023-01-06T14:54:06.283Z,12.77
2023-01-06T14:56:18.419Z,12.74
2023-01-06T14:58:31.448Z,12.71
2023-01-06T15:00:34.819Z,12.71
2023-01-06T15:02:42.176Z,12.67
2023-01-06T15:04:45.642Z,12.65
2023-01-06T15:06:58.230Z,12.68
2023-01-06T15:09:14.519Z,12.70
2023-01-06T15:11:25.556Z,12.68
2023-01-06T15:13:30.322Z,12.53
2023-01-06T15:15:34.356Z,12.35
2023-01-06T15:17:37.281Z,12.41
2023-01-06T15:19:43.886Z,12.46
2023-01-06T15:21:48.268Z,12.38
2023-01-06T15:23:52.358Z,12.19
2023-01-06T15:25:56.237Z,12.28
2023-01-06T15:27:59.283Z,12.32
2023-01-06T15:30:02.196Z,12.34
2023-01-06T15:32:06.285Z,12.36
2023-01-06T15:34:10.470Z,12.38
2023-01-06T15:36:20.638Z,12.47
2023-01-06T15:38:26.666Z,12.46
2023-01-06T15:40:30.088Z,12.48
2023-01-06T15:42:36.107Z,12.48
2023-01-06T15:44:40.068Z,12.50
2023-01-06T15:46:43.309Z,12.23
2023-01-06T15:48:48.786Z,12.37
2023-01-06T15:50:53.099Z,12.28
2023-01-06T15:53:00.021Z,12.26
2023-01-06T15:55:04.745Z,12.12
2023-01-06T15:57:16.633Z,12.14
2023-01-06T15:59:21.061Z,12.11
2023-01-06T16:01:25.034Z,11.88
2023-01-06T16:03:29.645Z,12.13
2023-01-06T16:05:43.213Z,11.99
2023-01-06T16:07:47.185Z,12.12
2023-01-06T16:09:51.448Z,12.17
2023-01-06T16:11:59.896Z,12.12
2023-01-06T16:14:02.750Z,11.99
2023-01-06T16:16:09.862Z,12.04
2023-01-06T16:18:13.396Z,12.06
2023-01-06T16:20:24.350Z,12.12
2023-01-06T16:22:32.248Z,11.95
2023-01-06T16:24:35.151Z,12.05
2023-01-06T16:26:45.774Z,12.04
2023-01-06T16:28:51.570Z,11.98
2023-01-06T16:31:08.751Z,12.04
2023-01-06T16:33:34.983Z,11.88
2023-01-06T16:35:38.223Z,11.78
2023-01-06T16:37:41.133Z,11.89
2023-01-06T16:39:45.555Z,12.03
2023-01-06T16:42:48.926Z,12.07
2023-01-06T16:45:01.150Z,12.08
2023-01-06T16:47:09.388Z,12.06
2023-01-06T16:49:12.517Z,12.09
2023-01-06T16:51:18.910Z,11.96
2023-01-06T16:53:22.830Z,11.91
2023-01-06T16:55:25.789Z,11.94
2023-01-06T16:57:30.188Z,11.92
2023-01-06T16:59:36.552Z,11.92
2023-01-06T17:01:39.657Z,12.00
2023-01-06T17:03:42.902Z,11.92
2023-01-06T17:05:46.026Z,11.91
2023-01-06T17:07:49.753Z,11.72
2023-01-06T17:09:52.879Z,11.91
2023-01-06T17:11:55.819Z,11.82
2023-01-06T17:14:01.133Z,11.79
2023-01-06T17:16:13.882Z,11.87
2023-01-06T17:18:27.866Z,11.80
2023-01-06T17:20:32.903Z,11.80
2023-01-06T17:22:35.968Z,11.76
2023-01-06T17:24:38.836Z,11.78
2023-01-06T17:26:49.871Z,11.73
2023-01-06T17:28:54.832Z,11.69
2023-01-06T17:31:00.234Z,11.76
2023-01-06T17:33:05.291Z,11.84
2023-01-06T17:35:19.818Z,11.78
2023-01-06T17:37:25.192Z,11.83
2023-01-06T17:39:30.568Z,11.78
2023-01-06T17:41:33.484Z,11.83
2023-01-06T17:43:37.089Z,11.85
2023-01-06T17:45:40.468Z,11.77
2023-01-06T17:47:48.941Z,11.72
2023-01-06T17:49:54.854Z,11.85
2023-01-06T17:51:57.829Z,11.89
2023-01-06T17:54:18.093Z,11.79
2023-01-06T17:56:22.623Z,11.79
2023-01-06T17:58:29.249Z,11.96
2023-01-06T18:00:35.462Z,11.86
2023-01-06T18:02:42.022Z,11.90
2023-01-06T18:04:47.083Z,11.89
2023-01-06T18:10:24.735Z,11.61
2023-01-06T18:12:28.497Z,11.78
2023-01-06T18:14:33.751Z,11.78
2023-01-06T18:16:36.826Z,11.70
2023-01-06T18:18:41.170Z,11.79
2023-01-06T18:20:48.309Z,11.86
2023-01-06T18:22:51.421Z,11.84
2023-01-06T18:24:56.866Z,11.91
2023-01-06T18:27:01.088Z,11.77
2023-01-06T18:29:12.351Z,11.87
2023-01-06T18:31:15.788Z,11.87
2023-01-06T18:33:18.781Z,11.85
2023-01-06T18:35:24.717Z,11.96
2023-01-06T18:37:31.955Z,11.82
2023-01-06T18:39:40.694Z,11.91
2023-01-06T18:41:46.250Z,11.92
2023-01-06T18:43:49.197Z,11.94
2023-01-06T18:45:55.250Z,11.86
2023-01-06T18:48:01.273Z,11.93
2023-01-06T18:50:29.897Z,11.93
2023-01-06T18:52:46.485Z,11.82
2023-01-06T18:54:49.448Z,11.94
2023-01-06T18:56:52.625Z,11.90
2023-01-06T18:58:57.419Z,11.92
2023-01-06T19:01:02.167Z,11.95
2023-01-06T19:03:20.939Z,12.03
2023-01-06T19:05:24.728Z,12.07
2023-01-06T19:07:30.139Z,12.12
2023-01-06T19:09:37.390Z,12.19
2023-01-06T19:11:40.315Z,12.15
2023-01-06T19:13:43.445Z,12.22
2023-01-06T19:15:47.030Z,12.23
2023-01-06T19:17:51.361Z,12.21
2023-01-06T19:19:56.081Z,12.20
2023-01-06T19:22:07.219Z,12.25
2023-01-06T19:24:39.597Z,12.13
2023-01-06T19:26:42.563Z,12.14
2023-01-06T19:28:46.473Z,12.09
2023-01-06T19:30:52.084Z,12.21
2023-01-06T19:32:54.901Z,12.21
2023-01-06T19:34:58.035Z,12.15
2023-01-06T19:37:01.278Z,12.24
2023-01-06T19:39:16.930Z,12.28
2023-01-06T19:41:25.402Z,12.27
2023-01-06T19:43:30.112Z,12.32
2023-01-06T19:45:35.083Z,12.35
2023-01-06T19:47:39.813Z,12.36
2023-01-06T19:49:46.563Z,12.41
2023-01-06T19:51:51.092Z,12.37
2023-01-06T19:53:55.689Z,12.30
2023-01-06T19:56:01.342Z,12.37
2023-01-06T19:58:09.261Z,12.38
2023-01-06T20:00:24.135Z,12.25
2023-01-06T20:02:29.604Z,12.37
2023-01-06T20:04:32.583Z,12.31
2023-01-06T20:06:37.726Z,12.35
2023-01-06T20:08:41.842Z,12.32
2023-01-06T20:10:44.782Z,12.20
2023-01-06T20:12:48.566Z,12.26
2023-01-06T20:14:52.820Z,12.15
2023-01-06T20:16:57.177Z,12.12
2023-01-06T20:19:00.401Z,12.18
2023-01-06T20:21:03.767Z,12.19
2023-01-06T20:23:06.796Z,12.31
2023-01-06T20:25:10.109Z,12.26
2023-01-06T20:27:13.050Z,12.19
2023-01-06T20:29:15.986Z,12.17
2023-01-06T20:31:20.277Z,12.23
2023-01-06T20:33:23.558Z,12.21
2023-01-06T20:35:26.530Z,12.11
2023-01-06T20:37:29.461Z,12.07
2023-01-06T20:39:32.815Z,12.07
2023-01-06T20:41:35.770Z,12.10
2023-01-06T20:43:38.965Z,12.13
2023-01-06T20:45:41.909Z,12.03
2023-01-06T20:47:47.766Z,11.90
2023-01-06T20:49:51.041Z,11.77
2023-01-06T20:51:53.983Z,11.77
2023-01-06T20:53:56.925Z,11.66
2023-01-06T20:55:59.874Z,11.71
2023-01-06T20:58:02.828Z,11.72
2023-01-06T21:00:07.079Z,11.64
2023-01-06T21:02:10.260Z,11.62
2023-01-06T21:04:15.047Z,11.73
2023-01-06T21:06:18.012Z,11.67
2023-01-06T21:08:20.912Z,11.62
2023-01-06T21:10:24.101Z,11.68
2023-01-06T21:12:27.763Z,11.50
2023-01-06T21:14:32.169Z,11.41
2023-01-06T21:16:35.195Z,11.20
2023-01-06T21:18:38.181Z,11.22
2023-01-06T21:20:42.483Z,11.34
2023-01-06T21:22:45.414Z,11.33
2023-01-06T21:24:48.512Z,11.35
2023-01-06T21:26:51.453Z,11.35
2023-01-06T21:28:54.413Z,11.39
2023-01-06T21:30:57.580Z,11.28
2023-01-06T21:33:00.545Z,11.37
2023-01-06T21:35:03.513Z,11.35
2023-01-06T21:37:08.257Z,11.35
2023-01-06T21:39:11.975Z,11.42
2023-01-06T21:41:32.862Z,11.54
2023-01-06T21:43:35.949Z,11.52
2023-01-06T21:45:40.101Z,11.64
2023-01-06T21:47:43.135Z,11.57
2023-01-06T21:49:46.381Z,11.48
2023-01-06T21:51:52.003Z,11.50
2023-01-06T21:53:57.139Z,11.57
2023-01-06T21:56:00.187Z,11.54
2023-01-06T21:58:03.778Z,11.47
2023-01-06T22:00:10.013Z,11.55
2023-01-06T22:02:16.590Z,11.49
2023-01-06T22:04:20.050Z,11.58
2023-01-06T22:06:23.614Z,11.54
2023-01-06T22:08:26.671Z,11.56
2023-01-06T22:10:30.992Z,11.51
2023-01-06T22:12:35.039Z,11.51
2023-01-06T22:14:38.549Z,11.47
2023-01-06T22:16:41.892Z,11.54
2023-01-06T22:18:45.728Z,11.48
2023-01-06T22:20:48.643Z,11.47
2023-01-06T22:22:51.629Z,11.54
2023-01-06T22:24:55.812Z,11.52
2023-01-06T22:27:00.544Z,11.63
2023-01-06T22:29:03.516Z,11.57
2023-01-06T22:31:06.957Z,11.48
2023-01-06T22:33:10.368Z,11.58
2023-01-06T22:35:14.033Z,11.58
2023-01-06T22:37:17.006Z,11.54
2023-01-06T22:39:20.076Z,11.64
2023-01-06T22:41:22.976Z,11.76
2023-01-06T22:43:27.462Z,11.69
2023-01-06T22:45:30.524Z,11.77
2023-01-06T22:47:33.793Z,11.70
2023-01-06T22:49:36.706Z,11.65
2023-01-06T22:51:39.715Z,11.67
2023-01-06T22:53:43.511Z,11.78
2023-01-06T22:55:46.475Z,11.71
2023-01-06T22:57:49.475Z,11.69
2023-01-06T22:59:54.107Z,11.55
2023-01-06T23:01:57.471Z,11.72
2023-01-06T23:04:00.791Z,11.80
2023-01-06T23:06:05.397Z,11.76
2023-01-06T23:08:08.602Z,11.80
2023-01-06T23:10:14.025Z,11.73
2023-01-06T23:12:17.116Z,11.77
2023-01-06T23:14:20.554Z,11.84
2023-01-06T23:16:26.901Z,11.86
2023-01-06T23:18:34.071Z,11.84
2023-01-06T23:20:36.991Z,11.84
2023-01-06T23:22:39.963Z,11.77
2023-01-06T23:24:42.886Z,11.66
2023-01-06T23:26:47.112Z,11.75
2023-01-06T23:28:52.027Z,11.72
2023-01-06T23:30:55.291Z,11.77
2023-01-06T23:32:59.961Z,11.71
2023-01-06T23:35:02.885Z,11.77
2023-01-06T23:37:06.105Z,11.86
2023-01-06T23:39:12.118Z,11.77
2023-01-06T23:41:17.513Z,11.80
2023-01-06T23:43:20.480Z,11.75
2023-01-06T23:45:23.677Z,11.76
2023-01-06T23:47:27.137Z,11.86
2023-01-06T23:49:31.568Z,11.70
2023-01-06T23:51:35.237Z,11.86
2023-01-06T23:53:39.124Z,11.71
2023-01-06T23:55:42.097Z,11.81
2023-01-06T23:57:45.481Z,11.82
2023-01-06T23:59:48.657Z,11.86
